Provincetown, MA

7:54 PM EDT on July 27, 2017 (GMT -0400)
Provincetown Municipal

Weather History for KPVC - December, 2011

Change the Weather History Date:

Monday, December 12, 2011

  Actual Average Record
Temperature  
Mean Temperature 42 °F -  
Max Temperature 48 °F 43 °F 59 °F (1951)
Min Temperature 37 °F 33 °F 20 °F (1957)
Degree Days  
Heating Degree Days 22    
Moisture  
Dew Point 29 °F    
Average Humidity 61    
Maximum Humidity 76    
Minimum Humidity 52    
Precipitation  
Precipitation 0.00 in - - ()
Sea Level Pressure  
Sea Level Pressure 30.53 in    
Wind  
Wind Speed 14 mph (SW)    
Max Wind Speed 18 mph    
Max Gust Speed 24 mph    
Visibility 10 miles    
Events      
Averages and records for this station are not official NWS values.
T = Trace of Precipitation, MM = Missing Value Source: NWS Daily Summary

Daily Weather History Graph

Daily Weather History Graph

Search for Another Location

Airport or City:

Trip Planner

Search our weather history database for the weather conditions in past years. The results will help you decide how hot, cold, wet, or windy it might be!

Date:

Astronomy

Dec. 12, 2011 Rise Set
Actual Time 6:59 AM EST 4:09 PM EST
Civil Twilight 6:27 AM EST 4:41 PM EST
Nautical Twilight 5:52 AM EST 5:16 PM EST
Astronomical Twilight 5:18 AM EST 5:50 PM EST
Moon 6:17 PM EST (12/12) 8:28 AM EST (12/12)
Length of Visible Light 10h 13m
Length of Day
9h 09m
Waning Gibbous, 96% of the Moon is Illuminated
Dec 12
Waning Gibbous
Dec 17
Last Quarter
Dec 24
New
Jan 1
First Quarter
Jan 9
Full

Hourly Weather History & Observations

Time (EST) Temp. Windchill Dew Point Humidity Pressure Visibility Wind Dir Wind Speed Gust Speed Precip Events Conditions
12:15 AM 37.4 °F 28.9 °F 21.2 °F 52% 30.60 in 10.0 mi SW 13.8 mph - N/A   Clear
12:35 AM 37.4 °F 28.5 °F 21.2 °F 52% 30.60 in 10.0 mi WSW 15.0 mph - N/A   Clear
12:55 AM 37.4 °F 29.3 °F 23.0 °F 56% 30.59 in 10.0 mi WSW 12.7 mph - N/A   Clear
1:35 AM 37.4 °F 29.3 °F 21.2 °F 52% 30.60 in 10.0 mi WSW 12.7 mph - N/A   Clear
1:55 AM 37.4 °F 29.3 °F 23.0 °F 56% 30.60 in 10.0 mi WSW 12.7 mph - N/A   Clear
2:35 AM 37.4 °F 28.9 °F 23.0 °F 56% 30.60 in 10.0 mi WSW 13.8 mph - N/A   Clear
2:55 AM 37.4 °F 28.2 °F 23.0 °F 56% 30.59 in 10.0 mi WSW 16.1 mph - N/A   Clear
3:15 AM 37.4 °F 29.3 °F 23.0 °F 56% 30.59 in 10.0 mi WSW 12.7 mph - N/A   Clear
3:55 AM 37.4 °F 28.9 °F 23.0 °F 56% 30.59 in 10.0 mi WSW 13.8 mph - N/A   Clear
4:15 AM 37.4 °F 29.3 °F 21.2 °F 52% 30.59 in 10.0 mi WSW 12.7 mph - N/A   Clear
4:35 AM 37.4 °F 28.5 °F 23.0 °F 56% 30.58 in 10.0 mi WSW 15.0 mph - N/A   Clear
4:55 AM 37.4 °F 29.3 °F 23.0 °F 56% 30.59 in 10.0 mi WSW 12.7 mph - N/A   Clear
5:15 AM 37.4 °F 28.2 °F 24.8 °F 60% 30.59 in 10.0 mi WSW 16.1 mph - N/A   Clear
5:35 AM 37.4 °F 28.2 °F 24.8 °F 60% 30.59 in 10.0 mi WSW 16.1 mph - N/A   Clear
5:55 AM 37.4 °F 28.9 °F 24.8 °F 60% 30.59 in 10.0 mi WSW 13.8 mph - N/A   Clear
6:15 AM 37.4 °F 29.3 °F 24.8 °F 60% 30.59 in 10.0 mi WSW 12.7 mph 20.7 mph N/A   Clear
6:35 AM 37.4 °F 29.3 °F 24.8 °F 60% 30.59 in 10.0 mi WSW 12.7 mph - N/A   Clear
6:55 AM 39.2 °F 30.5 °F 24.8 °F 56% 30.59 in 10.0 mi WSW 16.1 mph - N/A   Clear
7:15 AM 39.2 °F 30.8 °F 24.8 °F 56% 30.59 in 10.0 mi WSW 15.0 mph - N/A   Clear
7:35 AM 39.2 °F 30.5 °F 26.6 °F 61% 30.59 in 10.0 mi WSW 16.1 mph - N/A   Clear
7:55 AM 39.2 °F 30.5 °F 26.6 °F 61% 30.58 in 10.0 mi WSW 16.1 mph - N/A   Clear
8:15 AM 41.0 °F 32.5 °F 26.6 °F 57% 30.58 in 10.0 mi SW 17.3 mph - N/A   Clear
8:35 AM 42.8 °F 35.1 °F 28.4 °F 57% 30.58 in 10.0 mi SW 16.1 mph - N/A   Clear
8:55 AM 42.8 °F 35.4 °F 28.4 °F 57% 30.58 in 10.0 mi SW 15.0 mph - N/A   Clear
9:15 AM 42.8 °F 35.4 °F 30.2 °F 61% 30.58 in 10.0 mi SW 15.0 mph 20.7 mph N/A   Clear
9:35 AM 44.6 °F 37.4 °F 30.2 °F 57% 30.58 in 10.0 mi SW 16.1 mph - N/A   Clear
9:55 AM 44.6 °F 37.4 °F 30.2 °F 57% 30.58 in 10.0 mi SW 16.1 mph - N/A   Clear
10:15 AM 44.6 °F 37.8 °F 30.2 °F 57% 30.57 in 10.0 mi SW 15.0 mph - N/A   Clear
10:35 AM 44.6 °F 38.4 °F 32.0 °F 61% 30.57 in 10.0 mi SSW 12.7 mph 18.4 mph N/A   Clear
10:55 AM 44.6 °F 38.8 °F 32.0 °F 61% 30.56 in 10.0 mi SW 11.5 mph - N/A   Clear
11:15 AM 44.6 °F 38.1 °F 32.0 °F 61% 30.55 in 10.0 mi SW 13.8 mph - N/A   Clear
11:55 AM 46.4 °F 39.8 °F 33.8 °F 62% 30.53 in 10.0 mi SW 16.1 mph - N/A   Clear
12:15 PM 46.4 °F 40.4 °F 33.8 °F 62% 30.52 in 10.0 mi SW 13.8 mph - N/A   Clear
12:35 PM 48.2 °F - 33.8 °F 58% 30.51 in 10.0 mi SW 16.1 mph - N/A   Clear
12:55 PM 48.2 °F - 33.8 °F 58% 30.51 in 10.0 mi SSW 16.1 mph 21.9 mph N/A   Clear
1:15 PM 46.4 °F 39.8 °F 35.6 °F 66% 30.50 in 10.0 mi SW 16.1 mph - N/A   Clear
1:35 PM 46.4 °F 39.2 °F 33.8 °F 62% 30.50 in 10.0 mi SW 18.4 mph 23.0 mph N/A   Clear
2:15 PM 46.4 °F 39.8 °F 35.6 °F 66% 30.49 in 10.0 mi SW 16.1 mph 21.9 mph N/A   Clear
2:35 PM 46.4 °F 39.2 °F 33.8 °F 62% 30.50 in 10.0 mi SW 18.4 mph 23.0 mph N/A   Clear
3:35 PM 44.6 °F 36.9 °F 35.6 °F 71% 30.50 in 10.0 mi SW 18.4 mph 24.2 mph N/A   Clear
3:55 PM 44.6 °F 37.4 °F 33.8 °F 66% 30.50 in 10.0 mi SW 16.1 mph - N/A   Clear
4:35 PM 44.6 °F 37.8 °F 33.8 °F 66% 30.49 in 10.0 mi SW 15.0 mph - N/A   Clear
4:55 PM 44.6 °F 38.1 °F 33.8 °F 66% 30.48 in 10.0 mi SW 13.8 mph 20.7 mph N/A   Clear
5:15 PM 44.6 °F 37.8 °F 33.8 °F 66% 30.47 in 10.0 mi SW 15.0 mph - N/A   Clear
5:35 PM 44.6 °F 38.1 °F 33.8 °F 66% 30.47 in 10.0 mi SW 13.8 mph - N/A   Clear
6:15 PM 44.6 °F 37.8 °F 33.8 °F 66% 30.47 in 10.0 mi SW 15.0 mph - N/A   Clear
6:35 PM 44.6 °F 38.4 °F 33.8 °F 66% 30.47 in 10.0 mi SW 12.7 mph - N/A   Clear
6:55 PM 44.6 °F 37.8 °F 35.6 °F 71% 30.47 in 10.0 mi SW 15.0 mph - N/A   Clear
7:15 PM 44.6 °F 38.1 °F 35.6 °F 71% 30.46 in 10.0 mi SW 13.8 mph 20.7 mph N/A   Clear
7:35 PM 44.6 °F 38.4 °F 35.6 °F 71% 30.46 in 10.0 mi SW 12.7 mph - N/A   Clear
7:55 PM 44.6 °F 38.1 °F 35.6 °F 71% 30.45 in 10.0 mi WSW 13.8 mph - N/A   Clear
8:15 PM 42.8 °F 36.6 °F 35.6 °F 76% 30.45 in 10.0 mi SW 11.5 mph - N/A   Clear
8:35 PM 42.8 °F 36.6 °F 33.8 °F 70% 30.45 in 10.0 mi SW 11.5 mph - N/A   Clear
8:55 PM 42.8 °F 37.0 °F 33.8 °F 70% 30.44 in 10.0 mi WSW 10.4 mph - N/A   Clear
9:15 PM 42.8 °F 35.1 °F 32.0 °F 66% 30.44 in 10.0 mi WSW 16.1 mph - N/A   Clear
9:35 PM 42.8 °F 36.6 °F 30.2 °F 61% 30.44 in 10.0 mi SW 11.5 mph - N/A   Clear
9:55 PM 42.8 °F 35.8 °F 30.2 °F 61% 30.43 in 10.0 mi SW 13.8 mph - N/A   Clear
10:15 PM 42.8 °F 36.6 °F 30.2 °F 61% 30.43 in 10.0 mi SW 11.5 mph - N/A   Clear
10:35 PM 44.6 °F 38.8 °F 30.2 °F 57% 30.42 in 10.0 mi SW 11.5 mph - N/A   Clear
10:55 PM 44.6 °F 38.4 °F 30.2 °F 57% 30.42 in 10.0 mi SW 12.7 mph - N/A   Clear
11:15 PM 44.6 °F 38.4 °F 30.2 °F 57% 30.42 in 10.0 mi SW 12.7 mph - N/A   Clear
11:55 PM 42.8 °F 38.0 °F 32.0 °F 66% 30.42 in 10.0 mi SW 8.1 mph - N/A   Clear